Time;durP1;ratioP1;P1;durP2;ratioP2;P2;SDS_P1;SDS_P2;PMS_P1;PMS_P2;Temp;Humidity;BMP_temperature;BMP_pressure;BME280_temperature;BME280_humidity;BME280_pressure;Samples;Min_cycle;Max_cycle;Signal;HPM_P1;HPM_P2
2022/09/19 00:01:17;;;;;;;1.20;1.00;;;8.60;1.00;;;;;;5032288;28;20916;-46
2022/09/19 00:03:50;;;;;;;3.60;1.40;;;8.60;1.00;;;;;;5032362;28;21080;-46
2022/09/19 00:06:17;;;;;;;1.60;1.20;;;8.60;1.00;;;;;;5032525;28;20429;-46
2022/09/19 00:08:45;;;;;;;2.80;1.27;;;8.50;1.00;;;;;;5032532;28;20980;-46
2022/09/19 00:11:12;;;;;;;1.43;1.27;;;8.50;1.00;;;;;;5032287;28;20442;-48
2022/09/19 00:13:44;;;;;;;2.60;1.30;;;8.60;1.00;;;;;;5032050;28;20394;-47
2022/09/19 00:16:21;;;;;;;1.30;1.20;;;8.50;1.00;;;;;;5032316;28;20418;-47
2022/09/19 00:18:48;;;;;;;1.20;1.10;;;8.50;1.00;;;;;;5032095;28;20421;-46
2022/09/19 00:21:20;;;;;;;1.30;1.20;;;8.50;1.00;;;;;;5032184;28;20421;-46
2022/09/19 00:26:31;;;;;;;1.43;1.00;;;8.60;1.00;;;;;;5031929;28;20620;-47
2022/09/19 00:28:56;;;;;;;1.10;1.00;;;8.60;1.00;;;;;;5031432;28;20480;-46
2022/09/19 00:31:22;;;;;;;1.50;1.10;;;8.60;1.00;;;;;;5032033;28;20918;-46
2022/09/19 00:33:49;;;;;;;1.23;1.10;;;8.60;1.00;;;;;;5031882;28;20511;-46
2022/09/19 00:36:16;;;;;;;2.80;1.30;;;8.60;1.00;;;;;;5032126;28;20163;-46
2022/09/19 00:38:42;;;;;;;2.13;1.10;;;8.60;1.00;;;;;;5031946;28;20449;-46
2022/09/19 00:41:12;;;;;;;1.83;1.30;;;8.50;1.00;;;;;;5031619;28;20468;-47
2022/09/19 00:43:59;;;;;;;3.13;1.47;;;8.50;1.00;;;;;;5031509;28;20428;-46
2022/09/19 00:46:28;;;;;;;1.10;1.00;;;8.50;1.00;;;;;;5031578;28;20421;-47
2022/09/19 00:49:01;;;;;;;1.30;1.20;;;8.50;1.00;;;;;;5031528;28;21371;-46
2022/09/19 00:51:32;;;;;;;1.33;1.20;;;8.50;1.00;;;;;;5027104;28;20446;-47
2022/09/19 00:54:07;;;;;;;1.60;1.30;;;8.50;1.00;;;;;;5031608;28;20405;-47
2022/09/19 00:56:34;;;;;;;1.37;1.27;;;8.50;1.00;;;;;;5031420;28;20563;-48
2022/09/19 00:59:01;;;;;;;2.50;1.40;;;8.50;1.00;;;;;;5030941;28;20428;-46
2022/09/19 01:01:27;;;;;;;2.40;1.50;;;8.50;1.00;;;;;;5031227;28;20405;-46
2022/09/19 01:03:53;;;;;;;1.40;1.30;;;8.50;1.00;;;;;;5031279;28;20410;-47
2022/09/19 01:06:34;;;;;;;2.77;1.20;;;8.50;1.00;;;;;;5031172;28;20202;-47
2022/09/19 01:09:19;;;;;;;2.30;1.70;;;8.50;1.00;;;;;;5041282;28;20202;-48
2022/09/19 01:11:57;;;;;;;2.03;1.47;;;8.50;1.00;;;;;;5051010;28;20792;-48
2022/09/19 01:14:56;;;;;;;2.03;1.20;;;8.50;1.00;;;;;;5050917;28;20408;-47
2022/09/19 01:17:25;;;;;;;1.20;1.10;;;8.50;1.00;;;;;;5050923;28;20405;-48
2022/09/19 01:19:59;;;;;;;1.70;1.40;;;8.50;1.00;;;;;;5049412;28;20779;-48
2022/09/19 01:22:46;;;;;;;2.23;1.47;;;8.50;1.00;;;;;;5050609;28;20432;-51
2022/09/19 01:25:21;;;;;;;2.60;1.50;;;8.40;1.00;;;;;;5050329;28;21009;-47
2022/09/19 01:28:20;;;;;;;1.67;1.20;;;8.40;1.00;;;;;;5050461;28;20420;-47
2022/09/19 01:33:44;;;;;;;3.57;1.60;;;8.30;1.00;;;;;;5050933;28;20403;-47
2022/09/19 01:36:14;;;;;;;2.10;1.37;;;8.40;1.00;;;;;;5050832;28;20409;-48
2022/09/19 01:38:43;;;;;;;1.50;1.30;;;8.40;1.00;;;;;;5050920;28;20862;-48
2022/09/19 01:41:10;;;;;;;1.40;1.30;;;8.40;1.00;;;;;;5050454;28;20412;-48
2022/09/19 01:43:36;;;;;;;2.90;1.30;;;8.40;1.00;;;;;;5050565;28;20564;-47
2022/09/19 01:46:25;;;;;;;2.33;1.20;;;8.40;1.00;;;;;;5050392;28;20498;-47
2022/09/19 01:48:59;;;;;;;2.53;1.60;;;8.40;1.00;;;;;;5050292;28;20234;-47
2022/09/19 01:51:38;;;;;;;5.97;1.50;;;8.30;1.00;;;;;;5050195;28;20400;-48
2022/09/19 01:54:21;;;;;;;1.83;1.60;;;8.30;1.00;;;;;;5050192;28;20932;-47
2022/09/19 01:57:08;;;;;;;1.93;1.40;;;8.20;1.00;;;;;;5050183;28;20452;-47
2022/09/19 01:59:43;;;;;;;2.47;1.60;;;8.20;1.00;;;;;;5050293;28;20511;-47
2022/09/19 02:02:28;;;;;;;3.57;1.80;;;8.20;1.00;;;;;;5050070;28;20408;-47
2022/09/19 02:05:09;;;;;;;3.20;1.40;;;8.20;1.00;;;;;;5049794;28;20496;-47
2022/09/19 02:08:04;;;;;;;3.50;1.83;;;8.20;1.00;;;;;;5050203;28;20991;-47
2022/09/19 02:10:43;;;;;;;1.90;1.70;;;8.20;1.00;;;;;;5050094;28;20416;-47
2022/09/19 02:13:11;;;;;;;3.40;1.50;;;8.20;1.00;;;;;;5050340;28;20409;-47
2022/09/19 02:15:39;;;;;;;4.60;1.47;;;8.20;1.00;;;;;;5050528;28;20829;-47
2022/09/19 02:18:13;;;;;;;3.20;1.40;;;8.20;1.00;;;;;;5049997;28;20412;-48
2022/09/19 02:20:41;;;;;;;1.80;1.70;;;8.20;1.00;;;;;;5050216;28;20392;-47
2022/09/19 02:23:18;;;;;;;2.13;1.77;;;8.20;1.00;;;;;;5050472;28;20738;-47
2022/09/19 02:25:45;;;;;;;3.27;1.90;;;8.20;1.00;;;;;;5049979;28;20464;-47
2022/09/19 02:28:18;;;;;;;5.03;1.80;;;8.20;1.00;;;;;;5049979;28;20421;-47
2022/09/19 02:30:44;;;;;;;1.57;1.47;;;8.20;1.00;;;;;;5049964;28;21078;-47
2022/09/19 02:33:11;;;;;;;2.07;1.40;;;8.20;1.00;;;;;;5050200;28;20405;-48
2022/09/19 02:36:09;;;;;;;5.47;1.97;;;8.20;1.00;;;;;;5050019;28;20416;-48
2022/09/19 02:38:47;;;;;;;3.40;1.60;;;8.20;1.00;;;;;;5050013;28;20424;-47
2022/09/19 02:41:36;;;;;;;5.53;1.43;;;8.10;1.00;;;;;;5032037;28;20453;-48
2022/09/19 02:44:19;;;;;;;4.80;1.80;;;8.20;1.00;;;;;;5029935;28;20437;-47
2022/09/19 02:47:02;;;;;;;3.40;1.30;;;8.20;1.00;;;;;;5030517;28;20397;-48
2022/09/19 02:49:38;;;;;;;4.60;1.60;;;8.20;1.00;;;;;;5030891;28;21286;-47
2022/09/19 02:52:12;;;;;;;3.90;1.90;;;8.10;1.00;;;;;;5030585;28;20920;-47
2022/09/19 02:54:42;;;;;;;6.63;1.50;;;8.10;1.00;;;;;;5029622;28;20414;-47
2022/09/19 02:57:10;;;;;;;3.27;1.70;;;8.10;1.00;;;;;;5030104;28;20422;-47
2022/09/19 02:59:39;;;;;;;5.93;2.07;;;8.10;1.00;;;;;;5029996;28;20428;-48
2022/09/19 03:02:16;;;;;;;2.03;1.83;;;8.10;1.00;;;;;;5028694;28;21101;-46
2022/09/19 03:04:47;;;;;;;4.00;2.27;;;8.10;1.00;;;;;;5030009;28;20422;-46
2022/09/19 03:07:17;;;;;;;4.70;1.50;;;8.10;1.00;;;;;;5029997;28;20911;-46
2022/09/19 03:10:08;;;;;;;2.53;1.50;;;8.10;1.00;;;;;;5029811;28;20523;-46
2022/09/19 03:12:47;;;;;;;1.47;1.37;;;8.10;1.00;;;;;;5029627;28;20457;-46
2022/09/19 03:15:13;;;;;;;1.90;1.50;;;8.10;1.00;;;;;;5031653;28;20966;-47
2022/09/19 03:17:43;;;;;;;2.80;1.20;;;8.10;1.00;;;;;;5033553;28;20414;-46
2022/09/19 03:20:12;;;;;;;2.20;1.70;;;8.10;1.00;;;;;;5033486;28;20414;-46
2022/09/19 03:22:39;;;;;;;2.87;1.43;;;8.10;1.00;;;;;;5033748;28;20517;-47
2022/09/19 03:25:09;;;;;;;2.40;1.43;;;8.10;1.00;;;;;;5033548;28;20474;-46
2022/09/19 03:27:38;;;;;;;4.70;1.60;;;8.10;1.00;;;;;;5032848;28;20410;-46
2022/09/19 03:30:10;;;;;;;4.10;1.83;;;8.00;1.00;;;;;;5033509;28;20453;-46
2022/09/19 03:32:37;;;;;;;1.80;1.37;;;8.00;1.00;;;;;;5033177;28;20406;-46
2022/09/19 03:35:03;;;;;;;3.40;1.40;;;8.00;1.00;;;;;;5032993;28;20464;-46
2022/09/19 03:37:32;;;;;;;2.83;1.47;;;8.00;1.00;;;;;;5033463;28;20876;-47
2022/09/19 03:39:57;;;;;;;1.70;1.20;;;8.00;1.00;;;;;;5033303;28;20402;-47
2022/09/19 03:42:24;;;;;;;4.37;1.73;;;8.00;1.00;;;;;;5032534;28;20434;-46
2022/09/19 03:44:50;;;;;;;2.30;1.50;;;8.00;1.00;;;;;;5032951;28;20167;-46
2022/09/19 03:47:15;;;;;;;2.30;1.40;;;8.00;1.00;;;;;;5032624;28;20418;-47
2022/09/19 03:49:41;;;;;;;2.00;1.53;;;8.00;1.00;;;;;;5033216;28;20265;-47
2022/09/19 03:52:07;;;;;;;1.83;1.63;;;8.00;1.00;;;;;;5032755;28;20773;-47
2022/09/19 03:54:34;;;;;;;4.40;1.20;;;8.00;1.00;;;;;;5032451;28;20164;-47
2022/09/19 03:57:00;;;;;;;6.43;1.57;;;8.00;1.00;;;;;;5032337;28;20175;-46
2022/09/19 03:59:25;;;;;;;1.97;1.40;;;8.00;1.00;;;;;;5032623;28;20422;-47
2022/09/19 04:01:54;;;;;;;2.97;1.57;;;8.00;1.00;;;;;;5032545;28;20938;-46
2022/09/19 04:04:21;;;;;;;2.07;1.30;;;7.90;1.00;;;;;;5032875;28;20177;-47
2022/09/19 04:06:47;;;;;;;2.13;1.43;;;8.00;1.00;;;;;;5032307;28;20770;-47
2022/09/19 04:09:13;;;;;;;4.67;1.37;;;8.00;1.00;;;;;;5032184;28;20516;-46
2022/09/19 04:11:41;;;;;;;8.70;1.70;;;8.00;1.00;;;;;;5032916;28;21258;-46
2022/09/19 04:14:07;;;;;;;4.50;1.60;;;7.90;1.00;;;;;;5030413;28;20567;-46
2022/09/19 04:16:32;;;;;;;3.00;1.40;;;8.00;1.00;;;;;;5032157;28;20406;-47
2022/09/19 04:18:59;;;;;;;1.97;1.40;;;8.00;1.00;;;;;;5032213;28;20605;-47
2022/09/19 04:21:25;;;;;;;5.57;1.40;;;8.00;1.00;;;;;;5031744;28;20183;-46
2022/09/19 04:23:51;;;;;;;3.77;1.50;;;8.10;1.00;;;;;;5031975;28;20456;-46
2022/09/19 04:26:17;;;;;;;6.33;1.50;;;8.10;1.00;;;;;;5030754;28;20481;-46
2022/09/19 04:28:43;;;;;;;5.93;1.90;;;8.10;1.00;;;;;;5032199;28;20210;-46
2022/09/19 04:31:12;;;;;;;3.03;1.30;;;8.10;1.00;;;;;;5052262;28;20169;-46
2022/09/19 04:33:38;;;;;;;5.30;1.57;;;8.10;1.00;;;;;;5051807;28;20281;-46
2022/09/19 04:36:05;;;;;;;2.87;1.77;;;8.10;1.00;;;;;;5051984;28;20430;-46
2022/09/19 04:38:32;;;;;;;7.60;2.00;;;8.20;1.00;;;;;;5052182;28;20848;-46
2022/09/19 04:40:59;;;;;;;3.67;1.30;;;8.30;1.00;;;;;;5052009;28;20421;-47
2022/09/19 04:43:26;;;;;;;6.40;1.73;;;8.30;1.00;;;;;;5051439;28;20449;-47
2022/09/19 04:45:54;;;;;;;8.73;1.80;;;8.50;1.00;;;;;;5051618;28;20417;-46
2022/09/19 04:48:20;;;;;;;7.23;1.40;;;8.50;1.00;;;;;;5051397;28;20440;-47
2022/09/19 04:50:50;;;;;;;9.10;1.90;;;8.60;1.00;;;;;;5051481;28;20476;-46
2022/09/19 04:53:18;;;;;;;8.13;2.07;;;8.60;1.00;;;;;;5051008;28;20401;-46
2022/09/19 04:55:48;;;;;;;6.70;1.80;;;8.70;1.00;;;;;;5051331;28;20932;-47
2022/09/19 04:58:15;;;;;;;8.00;1.77;;;8.70;1.00;;;;;;5050979;28;20416;-46
2022/09/19 05:00:41;;;;;;;3.00;1.40;;;8.80;1.00;;;;;;5051317;28;20409;-46
2022/09/19 05:03:11;;;;;;;19.90;2.13;;;8.90;1.00;;;;;;5051061;28;20857;-47
2022/09/19 05:05:44;;;;;;;8.67;2.10;;;9.00;1.00;;;;;;5051141;28;20508;-46
2022/09/19 05:08:11;;;;;;;15.10;2.93;;;9.10;1.00;;;;;;5051035;28;20448;-46
2022/09/19 05:10:37;;;;;;;13.83;1.83;;;9.20;1.00;;;;;;5051219;28;20409;-47
2022/09/19 05:13:03;;;;;;;15.20;1.90;;;9.30;1.00;;;;;;5051253;28;20401;-46
2022/09/19 05:15:29;;;;;;;12.43;2.40;;;9.30;1.00;;;;;;5050971;28;20636;-47
2022/09/19 05:17:55;;;;;;;8.97;1.63;;;9.40;1.00;;;;;;5050953;28;20735;-46
2022/09/19 05:20:25;;;;;;;12.13;1.73;;;9.50;1.00;;;;;;5051035;28;20240;-46
2022/09/19 05:22:58;;;;;;;15.37;2.30;;;9.50;1.00;;;;;;5050546;28;20421;-46
2022/09/19 05:25:29;;;;;;;15.33;2.47;;;9.60;1.00;;;;;;5050604;28;20479;-46
2022/09/19 05:27:57;;;;;;;8.37;2.00;;;9.70;1.00;;;;;;5051468;28;20503;-47
2022/09/19 05:30:24;;;;;;;11.57;2.30;;;9.70;1.00;;;;;;5051066;28;20513;-47
2022/09/19 05:32:54;;;;;;;14.20;1.93;;;9.70;1.00;;;;;;5050984;28;20397;-47
2022/09/19 05:35:21;;;;;;;3.63;1.50;;;9.70;1.00;;;;;;5050977;28;20421;-47
2022/09/19 05:37:46;;;;;;;6.63;2.10;;;9.80;1.00;;;;;;5051309;28;20417;-46
2022/09/19 05:40:12;;;;;;;17.00;3.00;;;9.80;1.00;;;;;;5050837;28;20836;-46
2022/09/19 05:42:42;;;;;;;18.07;3.00;;;9.80;1.00;;;;;;5051166;28;20191;-47
2022/09/19 05:45:10;;;;;;;12.10;2.00;;;9.90;1.00;;;;;;5050823;28;20417;-47
2022/09/19 05:47:38;;;;;;;11.10;1.80;;;9.90;1.00;;;;;;5050882;28;20444;-46
2022/09/19 05:50:07;;;;;;;9.83;2.13;;;9.90;1.00;;;;;;5050613;28;20468;-47
2022/09/19 05:55:28;;;;;;;11.13;2.20;;;9.90;1.00;;;;;;5051175;28;20743;-46
2022/09/19 05:57:56;;;;;;;10.47;2.03;;;9.90;1.00;;;;;;5050325;28;20417;-46
2022/09/19 06:00:24;;;;;;;13.77;2.33;;;9.90;1.00;;;;;;5050502;28;20429;-47
2022/09/19 06:02:57;;;;;;;13.30;2.50;;;9.90;1.00;;;;;;5050558;28;20404;-47
2022/09/19 06:05:24;;;;;;;10.53;2.30;;;9.90;1.00;;;;;;5050608;28;20872;-47
2022/09/19 06:07:56;;;;;;;17.03;3.47;;;9.90;1.00;;;;;;5050635;28;20456;-47
2022/09/19 06:10:41;;;;;;;10.63;2.63;;;9.90;1.00;;;;;;5050475;28;20463;-47
2022/09/19 06:13:12;;;;;;;18.27;2.43;;;9.90;1.00;;;;;;5050019;28;20432;-47
2022/09/19 06:15:37;;;;;;;15.57;3.00;;;10.00;1.00;;;;;;5050333;28;20400;-47
2022/09/19 06:18:03;;;;;;;6.80;2.00;;;10.00;1.00;;;;;;5028308;28;20933;-47
2022/09/19 06:20:29;;;;;;;14.60;2.03;;;10.10;1.00;;;;;;5030374;28;20644;-47
2022/09/19 06:23:02;;;;;;;9.57;2.50;;;10.20;1.00;;;;;;5030047;28;20471;-47
2022/09/19 06:25:28;;;;;;;10.67;3.00;;;10.30;1.00;;;;;;5030682;28;20236;-47
2022/09/19 06:28:00;;;;;;;11.93;2.07;;;10.50;1.00;;;;;;5030379;28;21222;-47
2022/09/19 06:30:27;;;;;;;13.53;2.67;;;10.70;1.00;;;;;;5030057;28;20460;-47
2022/09/19 06:32:53;;;;;;;19.30;2.67;;;10.80;1.00;;;;;;5030153;28;20425;-47
2022/09/19 06:35:21;;;;;;;12.50;2.43;;;11.00;1.00;;;;;;5029733;28;20975;-47
2022/09/19 06:37:47;;;;;;;19.63;2.90;;;11.10;1.00;;;;;;5030068;28;20775;-47
2022/09/19 06:40:13;;;;;;;28.10;3.33;;;11.10;1.00;;;;;;5030541;28;21212;-47
2022/09/19 06:42:40;;;;;;;12.77;2.80;;;11.20;1.00;;;;;;5030299;28;20433;-47
2022/09/19 06:45:06;;;;;;;12.73;2.60;;;11.30;1.00;;;;;;5030411;28;20410;-47
2022/09/19 06:47:33;;;;;;;13.03;2.67;;;11.40;1.00;;;;;;5030076;28;20806;-48
2022/09/19 06:50:01;;;;;;;19.67;2.67;;;11.40;1.00;;;;;;5030608;28;20476;-47
2022/09/19 06:52:27;;;;;;;25.43;2.83;;;11.50;1.00;;;;;;5033775;28;20409;-47
2022/09/19 06:54:53;;;;;;;13.60;2.47;;;11.60;1.00;;;;;;5033906;28;20476;-47
2022/09/19 06:57:19;;;;;;;15.30;2.87;;;11.80;1.00;;;;;;5034491;28;20870;-47
2022/09/19 06:59:44;;;;;;;19.80;2.57;;;12.00;1.00;;;;;;5034139;28;20838;-47
2022/09/19 07:02:10;;;;;;;17.50;2.90;;;12.30;1.00;;;;;;5033479;28;20183;-47
2022/09/19 07:04:36;;;;;;;18.20;2.80;;;12.80;1.00;;;;;;5033896;28;20675;-47
2022/09/19 07:07:03;;;;;;;14.53;3.33;;;13.30;99.90;;;;;;5033722;28;20460;-46
2022/09/19 07:09:29;;;;;;;13.17;2.60;;;13.90;99.90;;;;;;5033766;28;20199;-46
2022/09/19 07:11:56;;;;;;;9.97;2.70;;;14.40;1.00;;;;;;5034007;28;20414;-47
2022/09/19 07:14:23;;;;;;;11.03;2.57;;;14.90;1.00;;;;;;5032585;28;20594;-47
2022/09/19 07:16:49;;;;;;;13.50;2.93;;;15.40;1.00;;;;;;5033761;28;20497;-47
2022/09/19 07:19:14;;;;;;;14.17;2.57;;;15.70;99.90;;;;;;5038839;28;21142;-47
2022/09/19 07:21:40;;;;;;;15.70;2.37;;;15.70;99.90;;;;;;5053969;28;20624;-46
2022/09/19 07:24:06;;;;;;;13.80;3.05;;;15.30;1.00;;;;;;5046239;28;20478;-46
2022/09/19 07:26:32;;;;;;;13.67;3.00;;;15.40;1.00;;;;;;5045180;28;20291;-48
2022/09/19 07:28:58;;;;;;;17.83;2.47;;;15.50;99.90;;;;;;5037161;28;20221;-46
2022/09/19 07:31:26;;;;;;;17.80;3.03;;;15.60;99.90;;;;;;5040153;28;20551;-46
2022/09/19 07:33:51;;;;;;;21.30;3.13;;;15.70;1.00;;;;;;5053459;28;20421;-46
2022/09/19 07:36:21;;;;;;;17.23;3.10;;;15.50;1.00;;;;;;5045787;28;20472;-47
2022/09/19 07:38:49;;;;;;;13.70;2.80;;;15.50;99.90;;;;;;5053279;28;20655;-47
2022/09/19 07:41:16;;;;;;;11.80;2.33;;;15.70;6.80;;;;;;5051655;28;20436;-47
2022/09/19 07:43:43;;;;;;;12.80;3.10;;;16.00;1.00;;;;;;5051851;28;20402;-46
2022/09/19 07:46:09;;;;;;;73.47;41.03;;;16.60;99.90;;;;;;5048220;28;20441;-47
2022/09/19 07:48:34;;;;;;;20.77;4.00;;;17.00;99.90;;;;;;5033784;28;20834;-46
2022/09/19 07:51:02;;;;;;;8.93;2.30;;;17.40;99.90;;;;;;5050170;28;20437;-48
2022/09/19 07:53:28;;;;;;;19.00;3.13;;;17.60;1.00;;;;;;5052853;28;20193;-48
2022/09/19 07:55:56;;;;;;;18.30;2.50;;;17.80;33.90;;;;;;5050249;28;20471;-48
2022/09/19 07:58:23;;;;;;;20.70;3.13;;;17.60;99.90;;;;;;5051984;28;20194;-49
2022/09/19 08:00:50;;;;;;;16.70;3.50;;;17.10;1.00;;;;;;5049339;28;20466;-46
2022/09/19 08:03:17;;;;;;;21.03;4.63;;;16.80;7.70;;;;;;5053355;28;20435;-47
2022/09/19 08:05:51;;;;;;;17.53;2.97;;;16.70;99.90;;;;;;5035863;28;20469;-46
2022/09/19 08:08:18;;;;;;;14.60;3.43;;;16.50;99.90;;;;;;5047188;28;20404;-54
2022/09/19 08:10:44;;;;;;;16.70;2.97;;;16.80;1.00;;;;;;5053341;28;20512;-46
2022/09/19 08:13:13;;;;;;;9.23;3.13;;;17.40;1.00;;;;;;5052044;28;20507;-46
2022/09/19 08:15:39;;;;;;;19.27;3.17;;;18.10;1.00;;;;;;5052980;28;20548;-46
2022/09/19 08:18:19;;;;;;;13.50;2.93;;;18.50;28.80;;;;;;5053534;28;20463;-47
2022/09/19 08:20:44;;;;;;;13.47;2.50;;;18.60;1.00;;;;;;5053290;28;20886;-46
2022/09/19 08:23:13;;;;;;;14.23;2.90;;;18.70;1.00;;;;;;5053109;28;20452;-48
2022/09/19 08:25:46;;;;;;;9.50;2.97;;;18.50;1.00;;;;;;5035188;28;20290;-46
2022/09/19 08:28:12;;;;;;;19.17;3.37;;;18.50;1.00;;;;;;5035449;28;20457;-49
2022/09/19 08:30:37;;;;;;;11.40;2.27;;;18.70;1.00;;;;;;5034367;28;20436;-49
2022/09/19 08:33:06;;;;;;;13.30;3.00;;;19.20;1.00;;;;;;5033548;28;20855;-47
2022/09/19 08:35:37;;;;;;;21.00;2.83;;;19.80;1.00;;;;;;5051705;28;20191;-48
2022/09/19 08:38:04;;;;;;;15.73;2.70;;;20.30;1.00;;;;;;5054695;28;20396;-48
2022/09/19 08:40:51;;;;;;;10.60;2.00;;;20.10;1.00;;;;;;5044451;28;20450;-48
2022/09/19 08:43:37;;;;;;;20.43;3.00;;;19.50;1.00;;;;;;5034284;28;20433;-49
2022/09/19 08:46:08;;;;;;;7.07;1.80;;;19.80;1.00;;;;;;5034326;28;20449;-48
2022/09/19 08:48:57;;;;;;;13.40;2.40;;;20.00;1.00;;;;;;5050257;28;20456;-48
2022/09/19 08:51:35;;;;;;;10.50;2.47;;;19.40;1.00;;;;;;5044307;28;20436;-49
2022/09/19 08:54:12;;;;;;;14.37;4.00;;;18.80;1.00;;;;;;5038417;28;20436;-48
2022/09/19 08:56:39;;;;;;;10.23;2.00;;;18.40;1.00;;;;;;5037418;28;20933;-49
2022/09/19 08:59:11;;;;;;;13.17;2.20;;;18.10;1.00;;;;;;5053451;28;20848;-48
2022/09/19 09:01:38;;;;;;;11.60;2.70;;;17.50;1.00;;;;;;5050771;28;20452;-48
2022/09/19 09:04:09;;;;;;;19.17;2.93;;;17.40;1.00;;;;;;5035479;28;20946;-49
2022/09/19 09:06:40;;;;;;;14.00;2.97;;;17.20;1.00;;;;;;5032019;28;20448;-48
2022/09/19 09:09:16;;;;;;;15.83;2.73;;;17.00;1.00;;;;;;5031560;28;20835;-48
2022/09/19 09:12:17;;;;;;;15.57;2.87;;;16.90;1.00;;;;;;5035498;28;20478;-48
2022/09/19 09:15:01;;;;;;;11.65;2.40;;;17.00;1.00;;;;;;5049857;28;20793;-48
2022/09/19 09:17:50;;;;;;;13.23;3.57;;;17.00;1.00;;;;;;5041267;28;20642;-47
2022/09/19 09:20:24;;;;;;;10.40;3.10;;;17.20;1.00;;;;;;5031306;28;20414;-49
2022/09/19 09:23:04;;;;;;;9.20;2.73;;;17.30;1.00;;;;;;5043467;28;20807;-48
2022/09/19 09:25:32;;;;;;;21.37;3.30;;;17.30;1.00;;;;;;5050010;28;20488;-48
2022/09/19 09:28:10;;;;;;;16.93;3.57;;;17.40;1.00;;;;;;5050263;28;20440;-48
2022/09/19 09:30:41;;;;;;;8.23;2.03;;;17.50;1.00;;;;;;5049788;28;20483;-48
2022/09/19 09:33:25;;;;;;;15.83;2.83;;;17.70;1.00;;;;;;5039193;28;20456;-48
2022/09/19 09:35:57;;;;;;;14.30;2.77;;;17.70;1.00;;;;;;5031566;28;20398;-51
2022/09/19 09:38:32;;;;;;;12.27;2.20;;;17.90;1.00;;;;;;5031157;28;20433;-47
2022/09/19 09:44:06;;;;;;;12.60;3.57;;;18.20;1.00;;;;;;5048586;28;20526;-48
2022/09/19 09:46:48;;;;;;;12.30;2.30;;;18.00;1.00;;;;;;5050778;28;20409;-48
2022/09/19 09:49:14;;;;;;;8.67;2.07;;;18.00;1.00;;;;;;5049824;28;20477;-48
2022/09/19 09:52:08;;;;;;;11.83;1.90;;;18.00;1.00;;;;;;5050764;28;20769;-47
2022/09/19 09:58:13;;;;;;;5.80;1.60;;;18.10;1.00;;;;;;5029547;28;20432;-48
2022/09/19 10:03:49;;;;;;;5.00;1.87;;;18.10;1.00;;;;;;5041253;28;20495;-48
2022/09/19 10:06:38;;;;;;;7.33;2.10;;;18.10;1.00;;;;;;5050347;28;20401;-48
2022/09/19 10:09:51;;;;;;;5.87;2.27;;;18.20;1.00;;;;;;5049576;28;20480;-48
2022/09/19 10:12:25;;;;;;;12.73;2.67;;;18.70;1.00;;;;;;5026639;28;21048;-48
2022/09/19 10:14:58;;;;;;;8.47;1.53;;;18.80;1.00;;;;;;5028037;28;20918;-49
2022/09/19 10:17:28;;;;;;;7.93;1.60;;;18.90;1.00;;;;;;5023456;28;20525;-47
2022/09/19 10:19:59;;;;;;;10.30;2.20;;;18.80;1.00;;;;;;5030499;28;20463;-48
2022/09/19 10:22:25;;;;;;;10.10;1.83;;;18.70;1.00;;;;;;5034491;28;20440;-48
2022/09/19 10:24:55;;;;;;;4.60;1.93;;;18.80;1.00;;;;;;5043776;28;20954;-47
2022/09/19 10:27:24;;;;;;;35.00;18.97;;;19.00;1.00;;;;;;5034786;28;20179;-48
2022/09/19 10:30:21;;;;;;;6.30;2.90;;;19.00;1.00;;;;;;5034841;28;20453;-48
2022/09/19 10:32:50;;;;;;;10.60;1.70;;;19.10;1.00;;;;;;5034098;28;20427;-47
2022/09/19 10:35:36;;;;;;;14.33;2.33;;;19.20;1.00;;;;;;5034357;28;20857;-48
2022/09/19 10:38:13;;;;;;;9.90;2.20;;;19.20;1.00;;;;;;5034293;28;20398;-49
2022/09/19 10:41:00;;;;;;;10.57;2.00;;;20.10;1.00;;;;;;5052325;28;20412;-48
2022/09/19 10:43:43;;;;;;;5.33;1.73;;;20.90;1.00;;;;;;5068665;28;20528;-48
2022/09/19 10:46:16;;;;;;;3.70;1.47;;;21.00;1.00;;;;;;5046937;28;20519;-48
2022/09/19 10:48:51;;;;;;;6.10;1.40;;;21.40;1.00;;;;;;5036603;28;20497;-48
2022/09/19 10:51:17;;;;;;;5.80;1.33;;;22.30;1.00;;;;;;5037194;28;20501;-49
2022/09/19 10:53:52;;;;;;;6.60;1.50;;;23.30;1.00;;;;;;5053902;28;20416;-49
2022/09/19 10:56:28;;;;;;;9.37;1.83;;;22.90;1.00;;;;;;5053596;28;20440;-48
2022/09/19 10:59:27;;;;;;;5.90;2.23;;;22.20;99.90;;;;;;5052302;28;20447;-48
2022/09/19 11:02:08;;;;;;;9.10;2.00;;;21.00;99.90;;;;;;5054043;28;20516;-49
2022/09/19 11:04:35;;;;;;;4.47;1.30;;;20.30;1.00;;;;;;5044992;28;21013;-48
2022/09/19 11:07:14;;;;;;;2.90;1.23;;;21.20;1.00;;;;;;5033842;28;20410;-48
2022/09/19 11:09:42;;;;;;;6.27;1.40;;;22.60;1.00;;;;;;5041895;28;20468;-48
2022/09/19 11:12:15;;;;;;;7.20;1.30;;;23.40;1.00;;;;;;5039106;28;20576;-50
2022/09/19 11:14:44;;;;;;;6.50;1.90;;;22.70;99.90;;;;;;5043914;28;20806;-48
2022/09/19 11:17:22;;;;;;;5.10;1.30;;;22.70;99.90;;;;;;5044761;28;20409;-49
2022/09/19 11:19:54;;;;;;;9.80;1.40;;;23.00;99.90;;;;;;5052413;28;20819;-48
2022/09/19 11:22:22;;;;;;;4.20;1.30;;;22.40;99.90;;;;;;5053387;28;20405;-48
2022/09/19 11:25:14;;;;;;;4.50;1.20;;;21.90;99.90;;;;;;5046721;28;20481;-48
2022/09/19 11:28:15;;;;;;;4.30;1.00;;;22.70;99.90;;;;;;5030151;28;20601;-49
2022/09/19 11:31:06;;;;;;;2.33;1.20;;;22.50;99.90;;;;;;5046118;28;20475;-49
2022/09/19 11:33:56;;;;;;;4.20;1.37;;;22.20;99.90;;;;;;5053776;28;20784;-57
2022/09/19 11:36:45;;;;;;;5.20;1.20;;;22.90;99.90;;;;;;5034643;28;20444;-49
2022/09/19 11:39:36;;;;;;;6.23;1.73;;;22.50;99.90;;;;;;5033536;28;20406;-54
2022/09/19 11:42:49;;;;;;;3.30;1.13;;;21.30;99.90;;;;;;5033590;28;20497;-48
2022/09/19 11:45:19;;;;;;;1.87;1.00;;;20.30;99.90;;;;;;5038105;28;21026;-49
2022/09/19 11:47:50;;;;;;;4.27;1.23;;;19.60;99.90;;;;;;5048867;28;20559;-48
2022/09/19 11:50:46;;;;;;;7.50;1.40;;;19.10;99.90;;;;;;5039359;28;20581;-48
2022/09/19 11:53:18;;;;;;;7.20;1.50;;;18.80;99.90;;;;;;5053076;28;21034;-50
2022/09/19 11:56:01;;;;;;;8.23;1.73;;;18.60;99.90;;;;;;5052330;28;20439;-48
2022/09/19 11:58:27;;;;;;;4.30;1.43;;;18.60;99.90;;;;;;5052865;28;20416;-49
2022/09/19 12:01:05;;;;;;;7.70;1.97;;;18.60;99.90;;;;;;5051683;28;20432;-47
2022/09/19 12:04:11;;;;;;;6.77;1.60;;;18.50;99.90;;;;;;5052386;28;20466;-48
2022/09/19 12:07:10;;;;;;;6.93;1.60;;;18.30;99.90;;;;;;5052809;28;20401;-48
2022/09/19 12:09:55;;;;;;;6.10;1.70;;;18.20;99.90;;;;;;5033919;28;20477;-48
2022/09/19 12:12:25;;;;;;;6.83;2.10;;;18.00;99.90;;;;;;5033024;28;20406;-49
2022/09/19 12:14:57;;;;;;;6.27;1.30;;;17.80;1.00;;;;;;5032328;28;20468;-48
2022/09/19 12:17:26;;;;;;;7.33;1.20;;;17.50;1.00;;;;;;5033194;28;20405;-53
2022/09/19 12:20:16;;;;;;;7.43;3.03;;;17.10;1.00;;;;;;5053134;28;20471;-51
2022/09/19 12:24:52;;;;;;;5.03;1.80;;;16.70;1.00;;;;;;5051133;28;20829;-49
2022/09/19 12:25:50;;;;;;;2.30;0.80;;;16.20;1.00;;;;;;5032373;28;20838;-48
2022/09/19 12:28:19;;;;;;;1.60;0.70;;;15.50;1.00;;;;;;5031919;28;20453;-49
2022/09/19 12:30:49;;;;;;;2.00;0.70;;;15.00;1.00;;;;;;5032148;28;20425;-48
2022/09/19 12:33:31;;;;;;;2.83;0.80;;;14.40;1.00;;;;;;5036284;28;20444;-49
2022/09/19 12:36:30;;;;;;;1.33;0.70;;;14.00;1.00;;;;;;5053447;28;20385;-49
2022/09/19 12:38:56;;;;;;;1.97;0.93;;;13.60;1.00;;;;;;5043623;28;20452;-48
2022/09/19 12:41:50;;;;;;;3.30;0.80;;;13.30;1.00;;;;;;5031878;28;20836;-48
2022/09/19 12:44:21;;;;;;;2.83;1.10;;;13.10;60.70;;;;;;5040652;28;20198;-52
2022/09/19 12:47:15;;;;;;;2.53;1.10;;;13.20;99.90;;;;;;5052377;28;20410;-51
2022/09/19 12:49:57;;;;;;;3.83;1.20;;;13.30;99.90;;;;;;5038674;28;20467;-49
2022/09/19 12:52:36;;;;;;;2.43;1.10;;;13.50;99.90;;;;;;5031924;28;20410;-48
2022/09/19 12:55:22;;;;;;;6.47;1.20;;;13.80;99.90;;;;;;5047962;28;20429;-48
2022/09/19 12:57:54;;;;;;;5.23;1.10;;;14.20;99.90;;;;;;5051518;28;20401;-48
2022/09/19 13:00:20;;;;;;;7.30;1.00;;;14.60;77.20;;;;;;5050725;28;20445;-49
2022/09/19 13:02:51;;;;;;;6.17;1.13;;;14.90;18.10;;;;;;5051908;28;20504;-50
2022/09/19 13:05:33;;;;;;;3.00;1.10;;;15.20;45.00;;;;;;5053136;28;20413;-47
2022/09/19 13:08:09;;;;;;;4.80;1.10;;;15.30;7.30;;;;;;5036836;28;20536;-47
2022/09/19 13:10:46;;;;;;;7.53;1.43;;;15.40;1.00;;;;;;5031180;28;20453;-47
2022/09/19 13:13:20;;;;;;;6.47;1.43;;;15.30;1.00;;;;;;5046160;28;20443;-47
2022/09/19 13:15:54;;;;;;;4.50;1.23;;;15.00;1.00;;;;;;5051534;28;20408;-47
2022/09/19 13:24:17;;;;;;;3.57;1.23;;;14.30;1.00;;;;;;5031991;28;20456;-49
2022/09/19 13:26:51;;;;;;;1.90;1.03;;;14.10;7.70;;;;;;5032280;28;20461;-49
2022/09/19 13:29:28;;;;;;;2.63;1.10;;;13.90;48.90;;;;;;5051304;28;20260;-50
2022/09/19 13:31:57;;;;;;;2.13;1.00;;;13.70;99.90;;;;;;5050798;28;20423;-49
2022/09/19 13:35:00;;;;;;;2.97;1.43;;;13.60;99.90;;;;;;5051495;28;20424;-49
2022/09/19 13:37:34;;;;;;;3.20;1.20;;;13.40;99.90;;;;;;5038317;28;20958;-49
2022/09/19 13:40:15;;;;;;;2.10;0.87;;;13.30;99.90;;;;;;5031423;28;20413;-47
2022/09/19 13:42:58;;;;;;;2.20;1.00;;;13.20;51.20;;;;;;5037329;28;20456;-46
2022/09/19 13:45:57;;;;;;;5.53;0.90;;;13.30;41.30;;;;;;5050674;28;20404;-51
2022/09/19 13:48:29;;;;;;;3.33;0.77;;;13.40;48.80;;;;;;5037802;28;20448;-47
2022/09/19 13:51:12;;;;;;;0.83;0.83;;;13.50;99.90;;;;;;5030897;28;20441;-48